Aérodrome :
LOGIN :

S'inscrire | Disclaimer

   EN    FR    IT 

 










Légende :    VFR   VFR Marginal   IFR   IFR Intensif   IFR Très Intensif
Visi : 
Plafond : 
>= 8 km
>= 3000ft
5 à 8 km
1000 à 3000 ft
1500m à 5 km
500 à 1000 ft
800 à 1500m
200 à 500 ft
< 800m
< 200 ft
Symboles :   Orages  Brouillard  Fortes neiges  Fortes précipitations  Vent > 20 kt
SIGMETs :   Divers  Orages  Givrage  Turbulence  Onde Orograph.  Cendres Volcan.






- Altitude de l'aérodrome : 295 ft
- Code IATA : BWE


EDVE - Braunschweig

DERNIER METAR :
  • 211050Z VRB02KT CAVOK 30/16 Q1007

METARs EXPIRÉS :
  • 211020Z 09005KT 030V140 CAVOK 30/17 Q1007
  • 210950Z 11004KT 030V170 CAVOK 30/16 Q1007
  • 210920Z 08004KT 030V130 CAVOK 29/17 Q1007
  • 210850Z 07003KT 020V100 CAVOK 28/16 Q1007
  • 210820Z VRB02KT CAVOK 27/17 Q1007
  • 210750Z VRB02KT CAVOK 26/18 Q1007
  • 210720Z 10003KT 070V160 CAVOK 25/18 Q1007
  • 210650Z 11003KT 080V150 CAVOK 23/16 Q1007
  • 210620Z 11003KT 070V160 CAVOK 22/17 Q1007

TAF TAF EDVE
Valide du 21 à 09h jusqu'au 21 à 18h UTC


210800Z 2109/2118 12004KT CAVOK
BECMG 2111/2113 26006KT
PROB30
TEMPO 2114/2118 27020G35KT 3000 TSRAGR BKN040CB



MET'MAP, la Météo Aéronautique d'un coup d'oeil ! - Copyright ORBIFLY Décembre 2007 - Disclaimer

ORBIFLY MET'MAP TEAM :

Programmation & Développement : Alexandra Zaïnal
Sur une idée originale de : Baudouin d'Aumeries
Soutien technique & logistique : Manuel Goepfert
Assistance : Marc-Olivier Méhu




SOURCES & CREDITS :

   NOAA